Time;durP1;ratioP1;P1;durP2;ratioP2;P2;SDS_P1;SDS_P2;PMS_P1;PMS_P2;Temp;Humidity;BMP_temperature;BMP_pressure;BME280_temperature;BME280_humidity;BME280_pressure;Samples;Min_cycle;Max_cycle;Signal;HPM_P1;HPM_P2
2021/07/21 00:02:02;;;;;;;8.23;6.13;;;16.60;99.90;;;;;;4940450;29;20186;-82
2021/07/21 00:04:28;;;;;;;8.67;6.33;;;16.60;99.90;;;;;;4956969;29;20255;-82
2021/07/21 00:06:54;;;;;;;9.63;6.33;;;16.60;99.90;;;;;;4955721;28;20215;-82
2021/07/21 00:09:19;;;;;;;10.60;6.77;;;16.60;99.90;;;;;;4940413;29;20218;-83
2021/07/21 00:14:28;;;;;;;10.33;6.63;;;16.60;99.90;;;;;;4956396;29;20236;-83
2021/07/21 00:17:00;;;;;;;10.17;6.60;;;16.70;99.90;;;;;;4955576;28;20205;-83
2021/07/21 00:22:12;;;;;;;9.23;6.93;;;16.60;99.90;;;;;;4956104;29;20165;-83
2021/07/21 00:24:40;;;;;;;8.57;6.67;;;16.60;99.90;;;;;;4955781;29;20263;-82
2021/07/21 00:27:05;;;;;;;11.57;6.77;;;16.60;99.90;;;;;;4939853;29;20278;-83
2021/07/21 00:29:31;;;;;;;8.27;6.90;;;16.60;99.90;;;;;;4939296;29;20189;-83
2021/07/21 00:31:56;;;;;;;8.53;6.23;;;16.50;99.90;;;;;;4939586;29;20226;-83
2021/07/21 00:34:22;;;;;;;9.50;6.27;;;16.50;99.90;;;;;;4939044;29;20193;-80
2021/07/21 00:36:47;;;;;;;8.23;6.37;;;16.50;99.90;;;;;;4939082;29;20237;-82
2021/07/21 00:39:13;;;;;;;8.40;6.37;;;16.50;99.90;;;;;;4938380;29;20205;-81
2021/07/21 00:41:39;;;;;;;7.63;6.23;;;16.50;99.90;;;;;;4936139;29;20602;-82
2021/07/21 00:44:04;;;;;;;8.37;6.20;;;16.40;99.90;;;;;;4936531;29;20205;-81
2021/07/21 00:46:30;;;;;;;8.83;6.27;;;16.50;99.90;;;;;;4936107;29;20284;-83
2021/07/21 00:48:55;;;;;;;9.50;6.23;;;16.40;99.90;;;;;;4935947;29;20208;-83
2021/07/21 00:51:21;;;;;;;8.30;6.47;;;16.60;99.90;;;;;;4937523;29;20213;-82
2021/07/21 00:53:47;;;;;;;9.70;6.87;;;16.60;99.90;;;;;;4954037;29;20553;-81
2021/07/21 00:56:13;;;;;;;8.77;6.27;;;16.50;99.90;;;;;;4939328;29;20213;-83
2021/07/21 00:58:39;;;;;;;8.63;6.10;;;16.50;99.90;;;;;;4959022;29;20197;-83
2021/07/21 01:01:04;;;;;;;9.40;7.00;;;16.50;99.90;;;;;;4942614;29;20189;-83
2021/07/21 01:03:31;;;;;;;8.63;6.23;;;16.40;99.90;;;;;;4942823;29;20189;-83
2021/07/21 01:05:57;;;;;;;9.47;6.17;;;16.40;99.90;;;;;;4958803;28;20198;-83
2021/07/21 01:08:23;;;;;;;9.40;6.70;;;16.40;99.90;;;;;;4943170;29;20182;-82
2021/07/21 01:11:11;;;;;;;9.00;6.37;;;16.40;99.90;;;;;;4942287;29;20192;-82
2021/07/21 01:13:51;;;;;;;7.27;5.70;;;16.20;99.90;;;;;;4944710;29;20270;-83
2021/07/21 01:16:22;;;;;;;8.20;6.53;;;16.30;99.90;;;;;;4958301;28;20283;-81
2021/07/21 01:18:55;;;;;;;9.40;6.30;;;16.20;99.90;;;;;;4942160;29;20225;-81
2021/07/21 01:21:45;;;;;;;8.67;6.40;;;16.10;99.90;;;;;;4942139;29;20177;-83
2021/07/21 01:24:47;;;;;;;8.70;6.27;;;16.20;99.90;;;;;;4959923;28;20223;-82
2021/07/21 01:27:35;;;;;;;8.80;6.37;;;16.00;99.90;;;;;;4940188;29;20215;-82
2021/07/21 01:30:09;;;;;;;8.17;6.23;;;16.00;99.90;;;;;;4943316;29;20181;-83
2021/07/21 01:32:35;;;;;;;7.93;5.70;;;16.00;99.90;;;;;;4942284;29;20231;-82
2021/07/21 01:35:19;;;;;;;7.53;5.90;;;15.80;99.90;;;;;;4941978;29;20288;-82
2021/07/21 01:37:48;;;;;;;8.23;6.40;;;15.80;99.90;;;;;;4956881;28;20300;-82
2021/07/21 01:40:17;;;;;;;9.80;6.57;;;15.80;99.90;;;;;;4940613;29;20268;-82
2021/07/21 01:42:43;;;;;;;10.50;6.70;;;15.70;99.90;;;;;;4940645;29;20655;-82
2021/07/21 01:45:09;;;;;;;10.33;7.17;;;15.60;99.90;;;;;;4941266;29;20204;-82
2021/07/21 01:47:36;;;;;;;24.23;7.20;;;15.60;99.90;;;;;;4940666;29;20221;-81
2021/07/21 01:50:03;;;;;;;11.00;7.00;;;15.60;99.90;;;;;;4940699;29;20184;-82
2021/07/21 01:52:28;;;;;;;14.17;7.27;;;15.60;99.90;;;;;;4940727;29;20184;-82
2021/07/21 01:54:55;;;;;;;14.80;7.40;;;15.50;99.90;;;;;;4940760;29;20658;-82
2021/07/21 01:57:21;;;;;;;10.33;6.90;;;15.50;99.90;;;;;;4940444;29;20206;-82
2021/07/21 01:59:46;;;;;;;9.77;6.70;;;15.50;99.90;;;;;;4940298;29;20178;-82
2021/07/21 02:02:12;;;;;;;10.90;7.40;;;15.40;99.90;;;;;;4940796;29;20245;-82
2021/07/21 02:04:38;;;;;;;9.97;6.70;;;15.40;99.90;;;;;;4956528;29;20205;-82
2021/07/21 02:07:08;;;;;;;9.17;6.90;;;15.40;99.90;;;;;;4940218;28;20738;-82
2021/07/21 02:09:33;;;;;;;8.93;6.80;;;15.30;99.90;;;;;;4940217;29;20196;-82
2021/07/21 02:11:59;;;;;;;9.33;6.80;;;15.30;99.90;;;;;;4940057;29;20190;-82
2021/07/21 02:14:24;;;;;;;8.10;6.37;;;15.20;99.90;;;;;;4940201;29;20189;-82
2021/07/21 02:16:50;;;;;;;10.13;7.30;;;15.30;99.90;;;;;;4940194;29;20206;-81
2021/07/21 02:19:16;;;;;;;10.47;6.93;;;15.20;99.90;;;;;;4939941;29;20213;-81
2021/07/21 02:21:41;;;;;;;9.27;6.67;;;15.30;99.90;;;;;;4940208;29;20220;-81
2021/07/21 02:24:10;;;;;;;9.30;6.80;;;15.10;99.90;;;;;;4940076;29;20277;-81
2021/07/21 02:26:36;;;;;;;9.33;6.83;;;15.20;99.90;;;;;;4940363;29;20580;-82
2021/07/21 02:29:03;;;;;;;9.67;7.23;;;15.10;99.90;;;;;;4939773;29;20241;-82
2021/07/21 02:31:30;;;;;;;9.90;6.67;;;15.10;99.90;;;;;;4940055;29;20212;-82
2021/07/21 02:33:57;;;;;;;10.53;6.90;;;15.10;99.90;;;;;;4955798;28;20640;-81
2021/07/21 02:36:24;;;;;;;11.13;7.63;;;15.10;99.90;;;;;;4956006;28;20259;-81
2021/07/21 02:38:49;;;;;;;10.30;7.40;;;15.00;99.90;;;;;;4955487;29;20697;-82
2021/07/21 02:41:15;;;;;;;11.93;6.60;;;15.00;99.90;;;;;;4955706;29;20178;-81
2021/07/21 02:43:41;;;;;;;9.17;7.23;;;14.90;99.90;;;;;;4955561;29;20178;-81
2021/07/21 02:46:06;;;;;;;10.00;7.10;;;14.90;99.90;;;;;;4939386;29;20210;-82
2021/07/21 02:48:32;;;;;;;9.20;7.10;;;14.90;99.90;;;;;;4939717;29;20194;-81
2021/07/21 02:51:08;;;;;;;9.60;7.23;;;14.90;99.90;;;;;;4939278;29;20190;-81
2021/07/21 02:53:34;;;;;;;13.40;7.60;;;14.80;99.90;;;;;;4939369;29;20209;-82
2021/07/21 02:56:03;;;;;;;10.87;8.10;;;14.70;99.90;;;;;;4939219;29;20205;-82
2021/07/21 02:58:37;;;;;;;9.63;7.17;;;14.70;99.90;;;;;;4955687;29;20648;-81
2021/07/21 03:01:03;;;;;;;10.83;7.57;;;14.70;99.90;;;;;;4939664;29;20550;-82
2021/07/21 03:03:29;;;;;;;10.50;7.33;;;14.70;99.90;;;;;;4955601;29;20187;-81
2021/07/21 03:05:55;;;;;;;9.00;7.27;;;14.90;99.90;;;;;;4939704;29;20570;-82
2021/07/21 03:08:29;;;;;;;10.17;7.10;;;14.70;99.90;;;;;;4939463;29;20686;-82
2021/07/21 03:10:56;;;;;;;10.07;7.40;;;14.80;99.90;;;;;;4955263;29;20235;-81
2021/07/21 03:13:23;;;;;;;10.87;7.30;;;14.70;99.90;;;;;;4939281;29;20188;-81
2021/07/21 03:15:49;;;;;;;9.87;7.60;;;14.80;99.90;;;;;;4954696;28;20204;-82
2021/07/21 03:18:19;;;;;;;10.80;8.00;;;14.80;99.90;;;;;;4939308;29;20209;-81
2021/07/21 03:20:45;;;;;;;10.97;7.67;;;14.70;99.90;;;;;;4938771;29;20599;-81
2021/07/21 03:23:11;;;;;;;9.87;7.07;;;14.70;99.90;;;;;;4954984;29;20182;-82
2021/07/21 03:25:38;;;;;;;9.17;7.50;;;14.80;99.90;;;;;;4938815;28;20647;-81
2021/07/21 03:28:05;;;;;;;9.10;7.40;;;14.80;99.90;;;;;;4938694;29;20636;-82
2021/07/21 03:30:31;;;;;;;9.70;7.20;;;14.80;99.90;;;;;;4954945;29;20552;-81
2021/07/21 03:32:56;;;;;;;10.53;7.60;;;14.80;99.90;;;;;;4938805;29;20183;-81
2021/07/21 03:35:30;;;;;;;12.10;7.93;;;14.90;99.90;;;;;;4954502;28;20268;-82
2021/07/21 03:37:56;;;;;;;10.23;7.40;;;14.90;99.90;;;;;;4938542;29;20217;-82
2021/07/21 03:40:24;;;;;;;9.33;7.17;;;14.90;99.90;;;;;;4938499;29;20187;-82
2021/07/21 03:42:51;;;;;;;9.13;7.23;;;14.90;99.90;;;;;;4938625;29;20635;-81
2021/07/21 03:45:17;;;;;;;11.07;7.30;;;14.90;99.90;;;;;;4938424;29;20181;-81
2021/07/21 03:47:43;;;;;;;9.47;7.80;;;15.00;99.90;;;;;;4938748;29;20202;-81
2021/07/21 03:50:09;;;;;;;8.37;6.33;;;15.00;99.90;;;;;;4938940;29;20181;-81
2021/07/21 03:52:35;;;;;;;10.73;7.30;;;15.10;99.90;;;;;;4937919;29;20185;-80
2021/07/21 03:55:01;;;;;;;9.53;7.87;;;15.10;99.90;;;;;;4938442;29;20244;-82
2021/07/21 03:57:27;;;;;;;10.17;6.90;;;15.10;99.90;;;;;;4954526;28;20205;-82
2021/07/21 03:59:53;;;;;;;10.50;7.73;;;15.10;99.90;;;;;;4938318;29;20186;-81
2021/07/21 04:02:18;;;;;;;10.80;7.23;;;15.20;99.90;;;;;;4937928;29;20182;-81
2021/07/21 04:04:46;;;;;;;9.97;7.07;;;15.30;99.90;;;;;;4954231;29;20170;-82
2021/07/21 04:07:13;;;;;;;8.67;6.83;;;15.20;99.90;;;;;;4937493;29;20228;-81
2021/07/21 04:09:38;;;;;;;10.57;7.10;;;15.30;99.90;;;;;;4937873;29;20556;-81
2021/07/21 04:12:04;;;;;;;11.10;8.03;;;15.40;99.90;;;;;;4954001;29;20169;-82
2021/07/21 04:14:30;;;;;;;10.53;7.57;;;15.30;99.90;;;;;;4938149;29;20186;-82
2021/07/21 04:16:55;;;;;;;9.67;7.90;;;15.30;99.90;;;;;;4938230;29;20292;-82
2021/07/21 04:19:21;;;;;;;10.37;7.87;;;15.30;99.90;;;;;;4938262;29;20211;-81
2021/07/21 04:21:50;;;;;;;9.53;7.67;;;15.40;99.90;;;;;;4937079;29;20232;-80
2021/07/21 04:24:16;;;;;;;9.10;7.47;;;15.50;99.90;;;;;;4953023;29;20656;-80
2021/07/21 04:26:41;;;;;;;9.70;7.27;;;15.50;99.90;;;;;;4953009;28;20361;-81
2021/07/21 04:29:13;;;;;;;11.03;7.73;;;15.60;99.90;;;;;;4936751;29;20278;-80
2021/07/21 04:31:39;;;;;;;11.87;8.37;;;15.60;99.90;;;;;;4956375;28;20188;-81
2021/07/21 04:34:06;;;;;;;11.07;8.07;;;15.60;99.90;;;;;;4941017;28;20188;-80
2021/07/21 04:36:33;;;;;;;10.23;7.70;;;15.80;99.90;;;;;;4956729;28;20285;-80
2021/07/21 04:38:58;;;;;;;10.03;7.83;;;15.80;99.90;;;;;;4940509;29;20264;-80
2021/07/21 04:41:24;;;;;;;11.43;8.40;;;15.80;99.90;;;;;;4940263;29;20401;-81
2021/07/21 04:43:50;;;;;;;13.87;7.93;;;15.90;99.90;;;;;;4957244;29;20177;-81
2021/07/21 04:46:16;;;;;;;10.60;8.27;;;15.80;99.90;;;;;;4941017;29;20578;-81
2021/07/21 04:48:42;;;;;;;10.17;7.50;;;15.90;99.90;;;;;;4956746;29;20257;-81
2021/07/21 04:51:08;;;;;;;11.87;9.00;;;16.00;99.90;;;;;;4940355;29;20221;-81
2021/07/21 04:53:34;;;;;;;12.93;8.37;;;16.00;99.90;;;;;;4940860;29;20182;-81
2021/07/21 04:55:59;;;;;;;10.27;8.20;;;16.10;99.90;;;;;;4956174;29;20588;-81
2021/07/21 04:58:25;;;;;;;10.53;8.20;;;16.00;99.90;;;;;;4940685;29;20721;-81
2021/07/21 05:00:53;;;;;;;12.23;8.00;;;16.20;99.90;;;;;;4939737;29;20182;-81
2021/07/21 05:03:19;;;;;;;10.57;8.03;;;16.20;99.90;;;;;;4941250;29;20185;-81
2021/07/21 05:05:44;;;;;;;11.93;8.90;;;16.30;99.90;;;;;;4956855;29;20185;-81
2021/07/21 05:08:10;;;;;;;11.77;9.10;;;16.30;99.90;;;;;;4941044;29;20699;-81
2021/07/21 05:10:35;;;;;;;12.07;8.60;;;16.50;99.90;;;;;;4956628;29;20538;-82
2021/07/21 05:13:01;;;;;;;11.60;8.40;;;16.40;99.90;;;;;;4941663;29;20182;-83
2021/07/21 05:15:27;;;;;;;11.70;8.67;;;16.50;99.90;;;;;;4941664;28;20186;-81
2021/07/21 05:17:53;;;;;;;13.90;8.27;;;16.50;99.90;;;;;;4957606;29;20201;-84
2021/07/21 05:20:18;;;;;;;11.37;8.57;;;16.60;99.90;;;;;;4942328;29;20190;-80
2021/07/21 05:22:47;;;;;;;10.90;8.43;;;16.60;99.90;;;;;;4959634;29;20182;-80
2021/07/21 05:25:16;;;;;;;10.93;8.60;;;16.60;99.90;;;;;;4942811;29;20190;-80
2021/07/21 05:27:42;;;;;;;11.03;8.40;;;16.60;99.90;;;;;;4941717;29;20204;-80
2021/07/21 05:30:08;;;;;;;11.47;8.10;;;16.70;99.90;;;;;;4941279;29;20196;-80
2021/07/21 05:32:34;;;;;;;13.33;8.17;;;16.80;99.90;;;;;;4957700;29;20664;-80
2021/07/21 05:35:00;;;;;;;12.60;8.67;;;16.80;99.90;;;;;;4942268;29;20209;-80
2021/07/21 05:37:25;;;;;;;12.10;8.30;;;16.90;99.90;;;;;;4958601;29;20256;-80
2021/07/21 05:39:51;;;;;;;12.90;8.50;;;16.90;99.90;;;;;;4942313;29;20205;-81
2021/07/21 05:42:16;;;;;;;10.67;7.73;;;17.00;99.90;;;;;;4942190;29;20644;-81
2021/07/21 05:44:42;;;;;;;9.67;7.70;;;17.00;99.90;;;;;;4957864;29;20213;-81
2021/07/21 05:47:08;;;;;;;10.57;8.33;;;17.00;99.90;;;;;;4957723;29;20204;-80
2021/07/21 05:49:33;;;;;;;12.47;8.73;;;17.10;99.90;;;;;;4957524;29;20185;-81
2021/07/21 05:52:01;;;;;;;11.90;8.13;;;17.00;99.90;;;;;;4941862;29;20245;-80
2021/07/21 05:54:27;;;;;;;14.83;8.20;;;17.10;99.90;;;;;;4941939;29;20277;-80
2021/07/21 05:56:52;;;;;;;14.27;8.73;;;17.20;99.90;;;;;;4942160;29;20240;-80
2021/07/21 05:59:18;;;;;;;11.83;8.87;;;17.10;99.90;;;;;;4957498;29;20644;-80
2021/07/21 06:01:44;;;;;;;9.93;7.93;;;17.00;99.90;;;;;;4942109;29;20710;-80
2021/07/21 06:04:10;;;;;;;10.50;8.67;;;17.20;99.90;;;;;;4942219;29;20189;-81
2021/07/21 06:06:36;;;;;;;11.47;8.80;;;17.30;99.90;;;;;;4942388;29;20269;-81
2021/07/21 06:09:03;;;;;;;14.73;8.50;;;17.30;99.90;;;;;;4942167;29;20186;-80
2021/07/21 06:11:28;;;;;;;14.50;8.57;;;17.40;99.90;;;;;;4941473;29;20715;-81
2021/07/21 06:13:57;;;;;;;13.37;8.77;;;17.40;99.90;;;;;;4941983;29;20185;-81
2021/07/21 06:16:23;;;;;;;13.20;8.50;;;17.50;99.90;;;;;;4957565;29;20630;-81
2021/07/21 06:18:49;;;;;;;13.10;8.80;;;17.50;99.90;;;;;;4940634;29;20271;-80
2021/07/21 06:21:14;;;;;;;10.70;8.40;;;17.70;99.90;;;;;;4940976;29;20190;-80
2021/07/21 06:23:40;;;;;;;12.77;8.60;;;17.70;99.90;;;;;;4942349;29;20203;-81
2021/07/21 06:26:06;;;;;;;11.70;8.37;;;17.70;99.90;;;;;;4941292;29;20204;-80
2021/07/21 06:28:31;;;;;;;14.53;9.30;;;17.70;99.90;;;;;;4942149;29;20189;-80
2021/07/21 06:30:57;;;;;;;11.47;8.67;;;17.80;99.90;;;;;;4941480;29;20196;-80
2021/07/21 06:33:22;;;;;;;12.13;8.10;;;17.70;99.90;;;;;;4956911;29;20178;-80
2021/07/21 06:35:48;;;;;;;14.60;9.53;;;17.70;99.90;;;;;;4941233;29;20228;-81
2021/07/21 06:38:15;;;;;;;13.00;9.43;;;17.90;99.90;;;;;;4941112;29;20300;-81
2021/07/21 06:40:41;;;;;;;12.07;9.13;;;17.90;99.90;;;;;;4940721;29;20178;-81
2021/07/21 06:43:07;;;;;;;14.80;9.03;;;17.90;99.90;;;;;;4941768;28;20184;-80
2021/07/21 06:45:32;;;;;;;12.03;9.60;;;18.00;99.90;;;;;;4932702;28;20241;-81
2021/07/21 06:47:58;;;;;;;13.30;9.53;;;18.00;99.90;;;;;;4959072;28;20182;-80
2021/07/21 06:50:23;;;;;;;12.70;9.20;;;17.90;99.90;;;;;;4925277;29;20265;-80
2021/07/21 06:52:49;;;;;;;11.70;8.70;;;18.10;99.90;;;;;;4943211;29;20553;-86
2021/07/21 06:55:15;;;;;;;13.57;9.60;;;18.00;99.90;;;;;;4940279;29;20185;-87
2021/07/21 06:57:41;;;;;;;13.77;8.13;;;18.20;99.90;;;;;;4956801;28;20245;-86
2021/07/21 07:00:07;;;;;;;11.53;8.37;;;18.40;99.90;;;;;;4940906;29;20272;-83
2021/07/21 07:02:33;;;;;;;11.23;8.47;;;18.30;99.90;;;;;;4942952;29;20550;-84
2021/07/21 07:04:58;;;;;;;13.27;8.53;;;18.50;99.90;;;;;;4942258;29;20181;-81
2021/07/21 07:07:24;;;;;;;11.60;9.00;;;18.30;99.90;;;;;;4940518;29;20694;-84
2021/07/21 07:09:49;;;;;;;12.27;8.30;;;18.30;99.90;;;;;;4940932;29;20269;-82
2021/07/21 07:12:15;;;;;;;11.57;8.83;;;18.60;99.90;;;;;;4956548;29;20249;-84
2021/07/21 07:14:41;;;;;;;13.03;8.87;;;18.50;99.90;;;;;;4942172;29;20213;-83
2021/07/21 07:17:07;;;;;;;11.00;8.33;;;18.60;99.90;;;;;;4942651;29;20691;-84
2021/07/21 07:19:33;;;;;;;11.30;8.93;;;18.80;99.90;;;;;;4956772;29;20300;-83
2021/07/21 07:21:59;;;;;;;9.93;7.50;;;18.90;99.90;;;;;;4957418;29;20647;-82
2021/07/21 07:24:28;;;;;;;12.13;8.33;;;18.90;99.90;;;;;;4942327;29;20174;-83
2021/07/21 07:26:55;;;;;;;10.30;8.23;;;18.80;99.90;;;;;;4958425;28;20193;-81
2021/07/21 07:29:21;;;;;;;10.60;8.30;;;18.90;99.90;;;;;;4941714;29;20647;-82
2021/07/21 07:31:46;;;;;;;11.30;7.87;;;19.10;99.90;;;;;;4939292;29;20188;-83
2021/07/21 07:34:12;;;;;;;12.23;7.80;;;19.00;99.90;;;;;;4976358;23;20181;-76
2021/07/21 07:36:37;;;;;;;9.50;7.27;;;19.10;99.90;;;;;;4904388;29;20242;-77
2021/07/21 07:39:04;;;;;;;10.50;8.07;;;19.10;99.90;;;;;;4935441;29;20214;-77
2021/07/21 07:41:29;;;;;;;12.00;7.37;;;19.10;99.90;;;;;;4935038;29;20545;-77
2021/07/21 07:43:55;;;;;;;9.60;7.70;;;19.10;99.90;;;;;;4937177;29;20614;-77
2021/07/21 07:46:25;;;;;;;11.30;7.70;;;19.40;99.90;;;;;;4926211;29;20174;-76
2021/07/21 07:48:54;;;;;;;11.37;7.73;;;19.40;99.90;;;;;;4928728;29;20178;-77
2021/07/21 07:51:21;;;;;;;10.93;8.33;;;19.50;99.90;;;;;;4926574;29;20184;-77
2021/07/21 07:53:46;;;;;;;11.30;7.23;;;19.80;99.90;;;;;;4911266;29;20178;-76
2021/07/21 07:56:12;;;;;;;9.13;7.00;;;19.70;99.90;;;;;;4925917;29;20206;-77
2021/07/21 07:58:38;;;;;;;11.00;7.83;;;19.70;99.90;;;;;;4903930;29;20272;-77
2021/07/21 08:01:03;;;;;;;7.97;6.40;;;19.80;99.90;;;;;;4918838;29;20174;-76
2021/07/21 08:03:29;;;;;;;10.37;7.60;;;19.90;99.90;;;;;;4904344;29;20179;-78
2021/07/21 08:05:56;;;;;;;12.87;7.40;;;19.90;99.90;;;;;;4920466;29;20202;-77
2021/07/21 08:08:26;;;;;;;8.93;6.77;;;19.80;99.90;;;;;;4904965;29;20664;-84
2021/07/21 08:10:52;;;;;;;9.17;6.90;;;19.90;99.90;;;;;;4921638;29;20178;-80
2021/07/21 08:13:19;;;;;;;7.90;6.17;;;19.80;99.90;;;;;;4927264;29;20198;-79
2021/07/21 08:15:45;;;;;;;8.03;6.60;;;19.90;99.90;;;;;;4923728;29;20194;-79
2021/07/21 08:18:12;;;;;;;7.23;6.03;;;20.00;99.90;;;;;;4934818;29;20198;-79
2021/07/21 08:20:38;;;;;;;8.93;5.77;;;20.20;99.90;;;;;;4920323;29;20182;-79
2021/07/21 08:23:03;;;;;;;8.93;6.10;;;20.10;99.90;;;;;;4919474;29;20638;-77
2021/07/21 08:25:29;;;;;;;9.00;6.53;;;20.10;99.90;;;;;;4934350;29;20266;-79
2021/07/21 08:27:55;;;;;;;8.83;6.30;;;20.30;99.90;;;;;;4919818;29;20765;-77
2021/07/21 08:30:20;;;;;;;8.07;5.83;;;20.20;99.90;;;;;;4936292;29;20193;-78
2021/07/21 08:32:50;;;;;;;7.73;6.40;;;20.20;99.90;;;;;;4934643;29;20186;-76
2021/07/21 08:35:28;;;;;;;7.83;5.97;;;20.20;99.90;;;;;;4934610;29;20209;-76
2021/07/21 08:37:55;;;;;;;8.70;5.53;;;20.30;99.90;;;;;;4937304;29;20205;-76
2021/07/21 08:40:21;;;;;;;7.83;5.53;;;20.40;99.90;;;;;;4922661;29;20659;-76
2021/07/21 08:42:47;;;;;;;10.73;6.83;;;20.40;99.90;;;;;;4921374;29;20233;-76
2021/07/21 08:45:12;;;;;;;8.73;6.07;;;20.30;99.90;;;;;;4922093;29;20289;-75
2021/07/21 08:47:39;;;;;;;9.00;5.67;;;20.40;99.90;;;;;;4938378;29;20530;-78
2021/07/21 08:50:06;;;;;;;9.20;5.90;;;20.50;99.90;;;;;;4921423;29;20553;-75
2021/07/21 08:52:31;;;;;;;7.90;5.83;;;20.40;99.90;;;;;;4922881;29;20182;-75
2021/07/21 08:55:00;;;;;;;9.77;6.30;;;20.40;99.90;;;;;;4922532;29;20716;-75
2021/07/21 08:57:30;;;;;;;7.53;6.10;;;20.40;99.90;;;;;;4922327;29;20181;-75
2021/07/21 08:59:57;;;;;;;7.53;5.97;;;20.50;99.90;;;;;;4936971;29;20202;-75
2021/07/21 09:02:23;;;;;;;10.67;6.40;;;20.50;99.90;;;;;;4937863;29;20306;-75
2021/07/21 09:04:48;;;;;;;7.90;5.87;;;20.70;99.90;;;;;;4921557;29;20251;-75
2021/07/21 09:07:14;;;;;;;7.53;5.93;;;20.90;99.90;;;;;;4921444;29;20182;-75
2021/07/21 09:09:40;;;;;;;8.20;5.70;;;20.90;99.90;;;;;;4921959;29;20189;-75
2021/07/21 09:12:08;;;;;;;7.60;6.00;;;21.10;99.90;;;;;;4922291;29;20661;-76
2021/07/21 09:14:34;;;;;;;7.70;5.13;;;21.10;99.90;;;;;;4937143;29;20210;-75
2021/07/21 09:17:13;;;;;;;7.00;5.13;;;21.00;99.90;;;;;;4939179;29;20174;-75
2021/07/21 09:19:46;;;;;;;7.23;5.10;;;20.90;99.90;;;;;;4941061;29;20205;-75
2021/07/21 09:22:22;;;;;;;7.30;5.33;;;20.90;99.90;;;;;;4941247;29;20225;-75
2021/07/21 09:25:13;;;;;;;9.43;5.53;;;21.10;99.90;;;;;;4940959;29;20645;-75
2021/07/21 09:27:44;;;;;;;8.87;5.27;;;21.10;99.90;;;;;;4925527;29;20202;-75
2021/07/21 09:30:10;;;;;;;6.97;5.80;;;21.30;99.90;;;;;;4940611;29;20174;-75
2021/07/21 09:32:54;;;;;;;7.40;5.73;;;21.50;99.90;;;;;;4941145;29;20194;-75
2021/07/21 09:35:21;;;;;;;7.60;5.90;;;21.40;99.90;;;;;;4941555;29;20218;-75
2021/07/21 09:37:46;;;;;;;9.47;6.13;;;21.50;99.90;;;;;;4941691;29;20197;-75
2021/07/21 09:40:13;;;;;;;8.97;6.10;;;21.60;99.90;;;;;;4925335;29;20178;-75
2021/07/21 09:42:38;;;;;;;9.30;6.23;;;21.70;99.90;;;;;;4940675;29;20273;-75
2021/07/21 09:45:11;;;;;;;11.43;6.87;;;21.70;99.90;;;;;;4924474;29;20229;-75
2021/07/21 09:47:41;;;;;;;9.07;6.50;;;21.80;99.90;;;;;;4940610;29;20170;-75
2021/07/21 09:50:24;;;;;;;8.73;7.03;;;21.80;99.90;;;;;;4941031;29;20660;-76
2021/07/21 09:52:54;;;;;;;10.33;8.23;;;21.80;99.90;;;;;;4942588;29;20202;-75
2021/07/21 09:55:20;;;;;;;9.60;7.47;;;21.70;99.90;;;;;;4940999;29;20199;-75
2021/07/21 09:57:56;;;;;;;10.83;7.03;;;21.70;99.90;;;;;;4940887;29;20186;-75
2021/07/21 10:00:24;;;;;;;8.50;6.07;;;21.90;99.90;;;;;;4940998;29;20592;-75
2021/07/21 10:02:50;;;;;;;9.30;6.83;;;21.80;99.90;;;;;;4942165;29;20174;-76
2021/07/21 10:05:15;;;;;;;7.80;6.23;;;21.70;99.90;;;;;;4940657;29;20194;-75
2021/07/21 10:10:17;;;;;;;10.80;6.83;;;21.70;99.90;;;;;;4941585;29;20174;-75
2021/07/21 10:12:43;;;;;;;7.57;6.13;;;21.80;99.90;;;;;;4939926;29;20181;-75
2021/07/21 10:15:09;;;;;;;8.93;6.53;;;21.80;99.90;;;;;;4940796;29;20194;-75
2021/07/21 10:17:34;;;;;;;8.90;6.50;;;21.70;99.90;;;;;;4939742;29;20603;-75
2021/07/21 10:20:00;;;;;;;8.27;6.30;;;21.60;99.90;;;;;;4939487;29;20174;-75
2021/07/21 10:22:26;;;;;;;9.23;6.60;;;21.50;99.90;;;;;;4940314;29;20198;-75
2021/07/21 10:24:52;;;;;;;8.67;7.23;;;21.60;99.90;;;;;;4938353;29;20198;-79
2021/07/21 10:27:18;;;;;;;8.73;6.80;;;21.50;99.90;;;;;;4938692;29;20186;-78
2021/07/21 10:29:43;;;;;;;9.53;6.43;;;21.50;99.90;;;;;;4939622;29;20556;-78
2021/07/21 10:32:10;;;;;;;10.43;7.23;;;21.70;99.90;;;;;;4922158;29;20190;-79
2021/07/21 10:34:36;;;;;;;10.63;6.90;;;21.70;99.90;;;;;;4935440;29;20210;-77
2021/07/21 10:37:01;;;;;;;10.10;6.33;;;21.60;99.90;;;;;;4936623;29;20182;-77
2021/07/21 10:39:31;;;;;;;8.73;6.97;;;21.50;99.90;;;;;;4919875;29;20261;-78
2021/07/21 10:42:00;;;;;;;7.23;5.53;;;21.60;99.90;;;;;;4933840;29;20186;-76
2021/07/21 10:44:26;;;;;;;9.83;6.27;;;21.60;99.90;;;;;;4935437;29;20201;-77
2021/07/21 10:46:52;;;;;;;8.87;6.37;;;21.60;99.90;;;;;;4939174;29;20182;-78
2021/07/21 11:00:24;;;;;;;8.20;6.40;;;21.60;99.90;;;;;;4936762;29;20184;-79
2021/07/21 11:02:53;;;;;;;8.33;6.13;;;21.60;99.90;;;;;;4939045;29;20190;-78
2021/07/21 11:05:39;;;;;;;8.60;6.57;;;21.60;99.90;;;;;;4939198;29;20202;-79
2021/07/21 11:08:05;;;;;;;8.47;6.43;;;21.60;99.90;;;;;;4919739;29;20593;-78
2021/07/21 11:10:37;;;;;;;9.50;6.80;;;21.70;99.90;;;;;;4903224;29;20187;-78
2021/07/21 11:13:04;;;;;;;9.47;7.17;;;21.70;99.90;;;;;;4919007;29;20673;-78
2021/07/21 11:15:40;;;;;;;8.93;6.63;;;21.80;99.90;;;;;;4919430;29;20222;-79
2021/07/21 11:18:24;;;;;;;10.33;7.43;;;21.90;99.90;;;;;;4904587;29;20206;-78
2021/07/21 11:21:14;;;;;;;10.17;7.10;;;22.10;99.90;;;;;;4935863;29;20601;-79
2021/07/21 11:23:52;;;;;;;9.23;7.20;;;22.00;99.90;;;;;;4929754;29;20179;-79
2021/07/21 11:26:35;;;;;;;9.50;6.97;;;22.00;99.90;;;;;;4920810;29;20206;-79
2021/07/21 11:29:27;;;;;;;9.00;6.97;;;22.10;99.90;;;;;;4922931;29;20182;-79
2021/07/21 11:31:52;;;;;;;10.30;7.57;;;22.10;99.90;;;;;;4919347;29;20670;-78
2021/07/21 11:34:27;;;;;;;10.03;7.17;;;22.00;99.90;;;;;;4919827;29;20215;-78
2021/07/21 11:36:59;;;;;;;10.33;7.07;;;21.90;99.90;;;;;;4903163;29;20178;-79
2021/07/21 11:39:47;;;;;;;11.30;7.50;;;21.80;99.90;;;;;;4903504;29;20207;-78
2021/07/21 11:45:20;;;;;;;10.63;7.47;;;22.00;99.90;;;;;;4929166;29;20206;-78
2021/07/21 11:48:04;;;;;;;9.87;6.83;;;22.10;99.90;;;;;;4902404;29;20179;-77
2021/07/21 11:50:32;;;;;;;11.33;7.97;;;22.10;99.90;;;;;;4922896;29;20183;-78
2021/07/21 11:52:59;;;;;;;10.23;7.53;;;22.30;99.90;;;;;;4929422;29;20209;-78
2021/07/21 11:55:26;;;;;;;9.77;7.17;;;22.30;99.90;;;;;;4918118;29;20274;-78
2021/07/21 11:57:53;;;;;;;12.43;8.20;;;22.50;99.90;;;;;;4902221;29;20179;-79
2021/07/21 12:00:20;;;;;;;11.20;7.57;;;22.40;99.90;;;;;;4919185;29;20717;-78
2021/07/21 12:02:45;;;;;;;11.13;7.80;;;22.40;99.90;;;;;;4904714;29;20179;-78
2021/07/21 12:05:11;;;;;;;10.23;7.73;;;22.40;99.90;;;;;;4921565;29;20229;-78
2021/07/21 12:07:38;;;;;;;9.63;7.43;;;22.40;99.90;;;;;;4901796;29;20190;-77
2021/07/21 12:10:14;;;;;;;12.20;7.70;;;22.40;99.90;;;;;;4918494;29;20175;-78
2021/07/21 12:12:40;;;;;;;11.20;7.60;;;22.20;99.90;;;;;;4903074;29;20239;-79
2021/07/21 12:15:07;;;;;;;13.60;8.10;;;22.30;99.90;;;;;;4916852;29;20199;-77
2021/07/21 12:17:32;;;;;;;12.20;7.93;;;22.50;99.90;;;;;;4899421;29;20628;-77
2021/07/21 12:19:59;;;;;;;9.33;7.67;;;22.20;99.90;;;;;;4917149;29;20239;-78
2021/07/21 12:22:26;;;;;;;10.30;7.63;;;22.10;99.90;;;;;;4901833;29;20650;-78
2021/07/21 12:24:54;;;;;;;10.17;7.00;;;22.20;99.90;;;;;;4907897;29;20209;-79
2021/07/21 12:27:55;;;;;;;10.53;7.63;;;22.10;99.90;;;;;;4915828;29;20278;-78
2021/07/21 12:30:22;;;;;;;8.90;7.20;;;22.10;99.90;;;;;;4874862;29;20273;-78
2021/07/21 12:32:49;;;;;;;9.40;7.57;;;22.20;99.90;;;;;;4917713;29;20218;-79
2021/07/21 12:35:17;;;;;;;10.17;7.57;;;22.20;99.90;;;;;;4901030;29;20211;-77
2021/07/21 12:37:44;;;;;;;10.03;7.00;;;22.20;99.90;;;;;;4902707;29;20179;-80
2021/07/21 12:40:14;;;;;;;9.10;7.23;;;22.50;99.90;;;;;;4933340;29;20182;-79
2021/07/21 12:42:40;;;;;;;9.67;7.43;;;22.30;99.90;;;;;;4920490;29;20181;-79
2021/07/21 12:45:13;;;;;;;10.47;7.50;;;22.50;99.90;;;;;;4920697;29;20198;-78
2021/07/21 12:47:41;;;;;;;10.00;7.30;;;22.60;99.90;;;;;;4922184;29;20178;-79
2021/07/21 12:50:11;;;;;;;10.33;7.93;;;22.70;99.90;;;;;;4903843;29;20714;-78
2021/07/21 12:52:41;;;;;;;10.83;7.43;;;22.60;99.90;;;;;;4919507;29;20206;-78
2021/07/21 12:55:07;;;;;;;10.27;7.67;;;22.60;99.90;;;;;;4922601;29;20562;-77
2021/07/21 12:57:41;;;;;;;10.90;7.70;;;22.70;99.90;;;;;;4923751;29;20179;-77
2021/07/21 13:00:10;;;;;;;9.53;7.80;;;22.70;99.90;;;;;;4920920;29;20537;-77
2021/07/21 13:02:36;;;;;;;11.43;8.00;;;22.60;99.90;;;;;;4920891;29;20217;-77
2021/07/21 13:05:02;;;;;;;9.87;7.57;;;22.60;99.90;;;;;;4921720;29;20206;-77
2021/07/21 13:07:27;;;;;;;11.43;7.13;;;22.70;99.90;;;;;;4920466;29;20190;-77